• Join FlightAware (Why Join?)
  • Login
  • US Flag 
08:34AM EDT


 

Airport Tracker/Info


-or-


 

Live Flight TrackerFlight Track Log ✈ EJA122 ✈ 21-Jul-2013 ✈ KDAL - KASG

Flight Track Log - Related Links

Times and Time Zones

All times are in EDT time to prevent confusion due to time zone crossing. See the EJA122 flight status page for this flight to view local times or setup timezone preferences in your user account.

Time Position Orientation Groundspeed Altitude Reporting Facility
EDT Latitude Longitude Course Direction KTS MPH feet Rate Location/Type
06:52PM 32.8333 -96.8333 32° Northeast 180 207 1,100  Level Dallas / Fort Worth TRACON
06:53PM 32.8167 -96.8000 121° Southeast 238 274 2,300 3,000 Climbing Dallas / Fort Worth TRACON
06:54PM 32.7667 -96.7167 125° Southeast 291 335 6,200 3,420 Climbing Dallas / Fort Worth TRACON
06:55PM 32.8500 -96.6833 19° North 309 356 9,700 2,040 Climbing Dallas / Fort Worth TRACON
06:57PM 32.9858 -96.7175 32° Northeast 336 387 11,800 1,260 Climbing Fort Worth Center
06:58PM 33.1921 -96.9726 32° Northeast  Level FlightAware Approximate
06:58PM 33.0231 -96.5557 32° Northeast  Level Estimated
06:59PM 33.1867 -96.7631 349° North 354 407 14,500  Level Fort Worth Center
07:00PM 33.2869 -96.7847 350° North 365 420 15,500 900 Climbing Fort Worth Center
07:01PM 33.3892 -96.8089 349° North 370 426 16,400 900 Climbing Fort Worth Center
07:02PM 33.4894 -96.8033 34° Northeast 370 426 17,400 1,080 Climbing Fort Worth Center
07:03PM 33.5780 -96.7229 31° Northeast  Level FlightAware Approximate
07:03PM 33.5808 -96.7428 29° Northeast 353 406 18,600  Level Fort Worth Center
07:04PM 33.6767 -96.6822 28° Northeast 376 433 19,200 720 Climbing Fort Worth Center
07:06PM 33.8678 -96.5556 29° Northeast 387 445 20,900 780 Climbing Fort Worth Center
07:07PM 33.9633 -96.4944 28° Northeast 387 445 21,700 840 Climbing Fort Worth Center
07:08PM 34.0611 -96.4333 27° Northeast 387 445 22,600 1,080 Climbing Fort Worth Center
07:09PM 34.1439 -96.3619 36° Northeast 378 435 23,900 1,140 Climbing Fort Worth Center
07:10PM 34.2068 -96.2908 34° Northeast  Level FlightAware Approximate
07:10PM 34.2289 -96.2931 34° Northeast 372 428 24,900  Level Fort Worth Center
07:11PM 34.3181 -96.2242 33° Northeast 372 428 25,900 960 Climbing Fort Worth Center
07:12PM 34.4050 -96.1500 35° Northeast 372 428 26,900 540 Climbing Fort Worth Center
07:13PM 34.4917 -96.0781 34° Northeast 372 428 27,000  Climbing Fort Worth Center
07:14PM 34.5869 -95.9986 34° Northeast 384 442 27,000  Level Fort Worth Center
07:15PM 34.6839 -95.9186 34° Northeast 405 466 27,000  Level Fort Worth Center
07:16PM 34.7831 -95.8358 34° Northeast 418 481 27,000  Level Fort Worth Center
07:17PM 34.8781 -95.7481 37° Northeast 423 487 27,000  Level Fort Worth Center
07:18PM 34.9706 -95.6500 41° Northeast 433 498 27,000  Level Fort Worth Center
07:19PM 35.0567 -95.5442 45° Northeast 433 498 27,000  Level Fort Worth Center
07:20PM 35.1447 -95.4433 43° Northeast 433 498 27,000 -540 Level Fort Worth Center
07:21PM 35.2367 -95.3344 44° Northeast 433 498 26,000 -1,740 Descending Fort Worth Center
07:21PM 35.3294 -95.2281 43° Northeast 444 511 23,800 -2,160 Descending Memphis Center
07:22PM 35.4169 -95.1211 45° Northeast 454 522 21,900 -1,980 Descending Memphis Center
07:23PM 35.5042 -95.0189 44° Northeast 447 514 19,900 -2,040 Descending Memphis Center
07:24PM 35.5894 -94.9192 44° Northeast 433 498 17,900 -2,040 Descending Memphis Center
07:25PM 35.6658 -94.8236 45° Northeast 410 472 15,900 -1,920 Descending Memphis Center
07:26PM 35.7400 -94.7331 45° Northeast 386 444 14,100 -1,740 Descending Memphis Center
07:27PM 35.8139 -94.6447 44° Northeast 374 430 12,500 -1,680 Descending Memphis Center
07:28PM 35.8856 -94.5614 43° Northeast 361 415 10,800 -1,500 Descending Memphis Center
07:29PM 35.9442 -94.4925 44° Northeast 325 374 9,600 -1,440 Descending Memphis Center
07:30PM 35.9986 -94.4236 46° Northeast 290 334 8,000 -1,680 Descending Memphis Center
07:31PM 36.0550 -94.3544 45° Northeast 284 327 6,300 -1,800 Descending Memphis Center
07:32PM 36.1114 -94.2853 45° Northeast 279 321 4,500 -1,620 Descending Memphis Center
07:33PM 36.1653 -94.2261 42° Northeast 272 313 3,100 -900 Descending Memphis Center
07:34PM 36.2144 -94.1925 29° Northeast 237 273 2,800 -420 Descending Memphis Center
07:35PM 36.2306 -94.1444 67° East 166 191 2,300 -300 Descending Memphis Center
07:36PM 36.2297 -94.1031 91° East 130 150 2,200 -120 Descending Memphis Center